Time;durP1;ratioP1;P1;durP2;ratioP2;P2;SDS_P1;SDS_P2;PMS_P1;PMS_P2;Temp;Humidity;BMP_temperature;BMP_pressure;BME280_temperature;BME280_humidity;BME280_pressure;Samples;Min_cycle;Max_cycle;Signal;HPM_P1;HPM_P2
2023/01/12 00:01:50;;;;;;;16.20;2.30;;;8.70;48.90;;;;;;5071597;28;20052;-86
2023/01/12 00:04:17;;;;;;;9.45;2.17;;;8.70;99.90;;;;;;5055180;28;20131;-87
2023/01/12 00:06:43;;;;;;;11.30;2.58;;;8.70;99.90;;;;;;5039047;28;20048;-85
2023/01/12 00:09:09;;;;;;;10.05;2.22;;;8.70;99.90;;;;;;5071370;28;20048;-85
2023/01/12 00:11:36;;;;;;;13.45;2.17;;;8.80;99.90;;;;;;5055033;28;20139;-86
2023/01/12 00:14:02;;;;;;;12.57;2.72;;;8.70;99.90;;;;;;5054860;28;20037;-85
2023/01/12 00:16:34;;;;;;;11.10;2.80;;;8.60;99.90;;;;;;5071414;28;20665;-90
2023/01/12 00:19:15;;;;;;;;;;;8.60;99.90;;;;;;5056158;28;20101;-87
2023/01/12 00:24:48;;;;;;;13.25;1.88;;;8.50;99.90;;;;;;5071766;28;20048;-88
2023/01/12 00:27:19;;;;;;;9.18;1.63;;;8.50;8.80;;;;;;5054956;28;20049;-89
2023/01/12 00:29:45;;;;;;;9.80;1.88;;;8.50;99.90;;;;;;5055337;28;20045;-89
2023/01/12 00:32:13;;;;;;;11.48;2.15;;;8.50;1.00;;;;;;5071154;28;20059;-89
2023/01/12 00:34:39;;;;;;;12.00;2.22;;;8.50;1.00;;;;;;5054842;28;20053;-88
2023/01/12 00:37:05;;;;;;;6.93;1.60;;;8.50;84.10;;;;;;5071264;28;20443;-88
2023/01/12 00:39:30;;;;;;;16.63;2.08;;;8.50;99.90;;;;;;5054867;28;20048;-88
2023/01/12 00:47:25;;;;;;;13.38;2.30;;;8.60;99.90;;;;;;5071820;28;20048;-89
2023/01/12 00:49:51;;;;;;;11.82;2.35;;;8.70;99.90;;;;;;5054958;28;20370;-88
2023/01/12 00:52:19;;;;;;;17.70;2.47;;;8.70;99.90;;;;;;5038302;28;20409;-88
2023/01/12 00:54:44;;;;;;;14.35;2.85;;;8.70;99.90;;;;;;5074485;28;20127;-89
2023/01/12 00:57:13;;;;;;;16.67;3.15;;;8.70;99.90;;;;;;5054511;28;20174;-87
2023/01/12 00:59:40;;;;;;;12.75;2.50;;;8.70;99.90;;;;;;5054591;28;20132;-88
2023/01/12 01:02:05;;;;;;;14.98;2.17;;;8.60;99.90;;;;;;5054771;28;20131;-88
2023/01/12 01:04:33;;;;;;;14.25;2.70;;;8.60;99.90;;;;;;5038336;28;20127;-87
2023/01/12 01:07:00;;;;;;;18.98;3.17;;;8.60;99.90;;;;;;5054815;28;20195;-88
2023/01/12 01:09:26;;;;;;;14.20;1.88;;;8.60;99.90;;;;;;5037868;28;20389;-87
2023/01/12 01:11:52;;;;;;;15.68;2.30;;;8.60;99.90;;;;;;5021788;28;20037;-84
2023/01/12 01:14:17;;;;;;;12.18;2.22;;;8.60;99.90;;;;;;5054407;28;20044;-86
2023/01/12 01:16:43;;;;;;;12.57;2.25;;;8.60;99.90;;;;;;5054692;28;20374;-86
2023/01/12 01:19:09;;;;;;;11.45;1.95;;;8.60;99.90;;;;;;5054482;28;20048;-84
2023/01/12 01:21:35;;;;;;;15.32;2.47;;;8.70;99.90;;;;;;5037739;28;20091;-83
2023/01/12 01:24:01;;;;;;;12.23;2.10;;;8.70;99.90;;;;;;5054364;28;20427;-84
2023/01/12 01:26:29;;;;;;;13.23;3.05;;;8.70;99.90;;;;;;5054580;28;20092;-84
2023/01/12 01:28:55;;;;;;;14.60;1.88;;;8.60;99.90;;;;;;5054525;28;20124;-84
2023/01/12 01:31:23;;;;;;;6.93;1.40;;;8.40;99.90;;;;;;5037610;28;20052;-85
2023/01/12 01:33:50;;;;;;;12.95;1.88;;;8.30;99.90;;;;;;5037887;28;20136;-85
2023/01/12 01:36:16;;;;;;;9.60;1.70;;;8.20;99.90;;;;;;5054333;28;20049;-84
2023/01/12 01:38:43;;;;;;;10.95;2.10;;;8.20;99.90;;;;;;5054444;28;20045;-84
2023/01/12 01:41:22;;;;;;;7.22;1.85;;;8.10;99.90;;;;;;5038006;28;20400;-84
2023/01/12 01:44:10;;;;;;;12.27;2.67;;;8.10;99.90;;;;;;5055253;28;20048;-84
2023/01/12 01:46:45;;;;;;;16.75;2.55;;;8.30;99.90;;;;;;5052781;28;20041;-84
2023/01/12 01:49:29;;;;;;;19.35;2.92;;;8.40;99.90;;;;;;5053923;28;20040;-83
2023/01/12 01:52:10;;;;;;;11.23;2.28;;;8.50;99.90;;;;;;5053984;28;20041;-85
2023/01/12 01:54:42;;;;;;;17.90;2.45;;;8.50;99.90;;;;;;5053794;28;20084;-86
2023/01/12 01:57:10;;;;;;;12.55;2.42;;;8.60;99.90;;;;;;5060144;28;20056;-84
2023/01/12 01:59:37;;;;;;;15.23;2.42;;;8.70;99.90;;;;;;5057463;28;20170;-88
2023/01/12 02:02:03;;;;;;;15.65;2.72;;;8.60;99.90;;;;;;5073827;28;20044;-84
2023/01/12 02:04:30;;;;;;;17.85;2.40;;;8.60;99.90;;;;;;5040850;28;20123;-81
2023/01/12 02:06:56;;;;;;;16.63;2.65;;;8.60;99.90;;;;;;5073778;28;20538;-84
2023/01/12 02:09:27;;;;;;;11.57;2.10;;;8.60;99.90;;;;;;5073595;28;20465;-84
2023/01/12 02:17:42;;;;;;;12.10;2.28;;;8.70;99.90;;;;;;5073362;28;20048;-84
2023/01/12 02:20:50;;;;;;;9.30;1.90;;;8.70;99.90;;;;;;5073125;28;20135;-84
2023/01/12 02:23:32;;;;;;;12.90;1.80;;;8.60;99.90;;;;;;5073147;28;20048;-84
2023/01/12 02:26:38;;;;;;;12.80;2.22;;;8.50;99.90;;;;;;5073569;28;20044;-84
2023/01/12 02:29:13;;;;;;;12.07;2.42;;;8.40;99.90;;;;;;5073308;28;20047;-84
2023/01/12 02:31:51;;;;;;;10.40;2.33;;;8.40;99.90;;;;;;5073136;28;20136;-84
2023/01/12 02:34:41;;;;;;;16.58;2.35;;;8.40;99.90;;;;;;5072964;28;20049;-84
2023/01/12 02:37:07;;;;;;;24.75;3.60;;;8.50;99.90;;;;;;5073136;28;20052;-84
2023/01/12 02:39:58;;;;;;;16.48;3.25;;;8.50;99.90;;;;;;5056462;28;20091;-84
2023/01/12 02:42:40;;;;;;;15.75;3.58;;;8.50;99.90;;;;;;5072927;28;20051;-84
2023/01/12 02:45:21;;;;;;;15.95;2.85;;;8.60;99.90;;;;;;5056450;28;20507;-84
2023/01/12 02:48:08;;;;;;;10.68;2.38;;;8.70;99.90;;;;;;5072918;28;20048;-84
2023/01/12 02:51:10;;;;;;;11.05;2.22;;;8.80;99.90;;;;;;5072387;28;20080;-83
2023/01/12 02:54:00;;;;;;;16.58;3.58;;;8.80;99.90;;;;;;5072866;28;20485;-84
2023/01/12 02:56:32;;;;;;;14.65;3.22;;;8.80;99.90;;;;;;5056393;28;20047;-85
2023/01/12 02:59:06;;;;;;;13.02;3.30;;;8.80;99.90;;;;;;5075283;28;20121;-85
2023/01/12 03:01:35;;;;;;;15.15;2.58;;;8.80;99.90;;;;;;5058986;28;20040;-84
2023/01/12 03:04:04;;;;;;;17.02;3.15;;;8.80;99.90;;;;;;5075545;28;20086;-86
2023/01/12 03:06:54;;;;;;;14.20;2.35;;;8.80;99.90;;;;;;5075660;28;20091;-84
2023/01/12 03:09:29;;;;;;;16.77;3.33;;;8.80;99.90;;;;;;5075785;28;20516;-86
2023/01/12 03:12:02;;;;;;;15.73;3.25;;;8.80;99.90;;;;;;5058960;28;20388;-84
2023/01/12 03:14:33;;;;;;;7.32;1.98;;;8.70;99.90;;;;;;5075624;28;20143;-85
2023/01/12 03:17:04;;;;;;;14.70;2.92;;;8.70;99.90;;;;;;5075308;28;20132;-83
2023/01/12 03:19:32;;;;;;;12.55;2.80;;;8.70;99.90;;;;;;5075551;28;20044;-82
2023/01/12 03:22:07;;;;;;;11.65;3.08;;;8.70;99.90;;;;;;5059057;28;20129;-81
2023/01/12 03:24:39;;;;;;;14.50;3.17;;;8.70;99.90;;;;;;5059028;28;20048;-83
2023/01/12 03:27:14;;;;;;;14.60;3.42;;;8.70;99.90;;;;;;5075689;28;20048;-84
2023/01/12 03:29:46;;;;;;;20.80;3.22;;;8.80;99.90;;;;;;5059048;28;20051;-84
2023/01/12 03:32:12;;;;;;;13.93;2.58;;;8.80;99.90;;;;;;5058889;28;20055;-83
2023/01/12 03:34:38;;;;;;;19.15;4.15;;;8.80;99.90;;;;;;5058137;28;20047;-85
2023/01/12 03:37:15;;;;;;;25.35;4.35;;;8.80;99.90;;;;;;5042018;28;20055;-85
2023/01/12 03:39:59;;;;;;;14.82;3.33;;;8.70;99.90;;;;;;5075034;28;20131;-85
2023/01/12 03:42:47;;;;;;;15.30;4.05;;;8.70;99.90;;;;;;5075195;28;20044;-89
2023/01/12 03:45:25;;;;;;;22.73;4.25;;;8.80;99.90;;;;;;5061489;28;20709;-88
2023/01/12 03:48:08;;;;;;;16.38;3.47;;;8.70;99.90;;;;;;5083753;28;20040;-88
2023/01/12 03:50:46;;;;;;;15.95;3.25;;;8.70;99.90;;;;;;5058020;28;20036;-90
2023/01/12 03:53:15;;;;;;;16.30;3.78;;;8.80;99.90;;;;;;5075573;28;20059;-87
2023/01/12 03:55:43;;;;;;;18.88;4.20;;;8.70;99.90;;;;;;5058362;28;20048;-86
2023/01/12 03:58:09;;;;;;;11.38;3.55;;;8.80;99.90;;;;;;5074686;28;20062;-87
2023/01/12 04:00:35;;;;;;;8.55;2.83;;;8.80;99.90;;;;;;5058089;28;20083;-85
2023/01/12 04:03:09;;;;;;;11.88;3.58;;;8.80;99.90;;;;;;5075252;28;20079;-88
2023/01/12 04:05:35;;;;;;;18.60;3.40;;;8.80;99.90;;;;;;5075045;28;20109;-86
2023/01/12 04:08:01;;;;;;;14.60;3.70;;;8.90;99.90;;;;;;5058773;28;20048;-86
2023/01/12 04:10:27;;;;;;;18.10;3.75;;;8.90;99.90;;;;;;5075103;28;20058;-88
2023/01/12 04:12:52;;;;;;;14.77;3.83;;;8.90;99.90;;;;;;5058523;28;20377;-87
2023/01/12 04:15:18;;;;;;;14.55;2.95;;;8.90;99.90;;;;;;5058614;28;20105;-87
2023/01/12 04:17:44;;;;;;;11.88;3.03;;;8.90;99.90;;;;;;5058248;28;20055;-89
2023/01/12 04:20:10;;;;;;;13.77;3.30;;;8.90;99.90;;;;;;5058081;28;20127;-86
2023/01/12 04:22:41;;;;;;;13.88;2.53;;;8.90;99.90;;;;;;5075049;28;20040;-87
2023/01/12 04:25:07;;;;;;;;;;;8.90;99.90;;;;;;5059032;28;20098;-83
2023/01/12 04:27:33;;;;;;;13.95;2.90;;;8.90;99.90;;;;;;5056167;28;19928;-84
2023/01/12 04:29:59;;;;;;;9.45;2.38;;;8.90;99.90;;;;;;4703179;28;9999662;-84
2023/01/12 04:32:25;;;;;;;6.85;1.95;;;9.00;99.90;;;;;;5040319;28;20131;-83
2023/01/12 04:34:50;;;;;;;8.05;1.67;;;8.90;99.90;;;;;;5056553;28;20179;-85
2023/01/12 04:37:17;;;;;;;13.18;2.95;;;8.90;99.90;;;;;;5056496;28;20048;-84
2023/01/12 04:39:43;;;;;;;11.68;2.97;;;8.90;99.90;;;;;;5055743;28;20135;-85
2023/01/12 04:42:59;;;;;;;9.38;2.83;;;8.90;99.90;;;;;;5039808;28;20135;-83
2023/01/12 04:44:54;;;;;;;13.23;2.88;;;8.90;99.90;;;;;;5056477;28;20499;-84
2023/01/12 04:47:20;;;;;;;12.05;3.13;;;8.90;99.90;;;;;;5023587;28;20045;-85
2023/01/12 04:49:45;;;;;;;10.70;3.92;;;8.90;99.90;;;;;;5039623;28;20055;-85
2023/01/12 04:52:11;;;;;;;14.40;4.20;;;8.90;99.90;;;;;;5039687;28;20055;-85
2023/01/12 04:54:37;;;;;;;11.38;3.50;;;8.90;99.90;;;;;;5023332;28;20599;-87
2023/01/12 04:57:03;;;;;;;14.70;3.63;;;8.90;99.90;;;;;;5052620;28;20103;-90
2023/01/12 04:59:28;;;;;;;8.82;3.03;;;8.90;99.90;;;;;;5036596;28;20101;-89
2023/01/12 05:01:54;;;;;;;6.55;2.72;;;8.90;99.90;;;;;;5053609;28;20053;-89
2023/01/12 05:04:20;;;;;;;7.32;2.42;;;9.00;99.90;;;;;;5052712;28;20049;-86
2023/01/12 05:06:45;;;;;;;8.07;2.00;;;9.00;99.90;;;;;;5052707;28;20098;-88
2023/01/12 05:11:55;;;;;;;6.78;2.00;;;8.90;99.90;;;;;;5053599;28;20057;-88
2023/01/12 05:14:21;;;;;;;6.35;1.48;;;8.90;99.90;;;;;;5037074;28;20072;-83
2023/01/12 05:16:47;;;;;;;6.30;2.03;;;8.90;99.90;;;;;;5052368;28;20056;-88
2023/01/12 05:19:12;;;;;;;5.03;1.70;;;8.90;99.90;;;;;;5052762;28;20041;-86
2023/01/12 05:21:38;;;;;;;8.02;2.28;;;8.80;99.90;;;;;;5035498;28;20106;-86
2023/01/12 05:24:04;;;;;;;10.45;2.60;;;8.80;99.90;;;;;;5019964;28;20056;-89
2023/01/12 05:26:30;;;;;;;7.72;2.60;;;8.80;99.90;;;;;;5061229;28;20137;-87
2023/01/12 05:28:55;;;;;;;11.77;2.80;;;8.80;99.90;;;;;;5055384;28;20078;-88
2023/01/12 05:31:21;;;;;;;9.57;2.92;;;8.80;99.90;;;;;;5055870;28;20048;-86
2023/01/12 05:33:47;;;;;;;6.93;3.03;;;8.80;99.90;;;;;;5072297;28;20540;-87
2023/01/12 05:36:14;;;;;;;10.00;2.70;;;8.80;99.90;;;;;;5056128;28;20106;-86
2023/01/12 05:38:40;;;;;;;8.52;2.42;;;8.70;99.90;;;;;;5055243;28;20084;-88
2023/01/12 05:41:09;;;;;;;6.90;2.17;;;8.80;99.90;;;;;;5055027;28;20130;-86
2023/01/12 05:43:50;;;;;;;4.82;2.00;;;8.70;99.90;;;;;;5072285;28;20052;-86
2023/01/12 05:46:39;;;;;;;4.85;1.88;;;8.70;99.90;;;;;;5072433;28;20131;-87
2023/01/12 05:49:04;;;;;;;5.03;2.10;;;8.70;99.90;;;;;;5055689;28;20077;-87
2023/01/12 05:51:31;;;;;;;6.85;1.65;;;8.70;99.90;;;;;;5056205;28;20040;-89
2023/01/12 05:53:57;;;;;;;5.72;1.60;;;8.70;99.90;;;;;;5057362;28;20071;-91
2023/01/12 05:56:26;;;;;;;3.38;1.70;;;8.60;99.90;;;;;;5057680;28;20468;-88
2023/01/12 05:58:53;;;;;;;4.85;1.92;;;8.70;99.90;;;;;;5057044;28;20078;-86
2023/01/12 06:01:20;;;;;;;4.20;1.75;;;8.60;99.90;;;;;;5074208;28;20086;-88
2023/01/12 06:03:50;;;;;;;5.57;1.70;;;8.60;99.90;;;;;;5074099;28;20044;-86
2023/01/12 06:06:17;;;;;;;5.55;1.35;;;8.60;99.90;;;;;;5057517;28;20579;-88
2023/01/12 06:08:44;;;;;;;6.47;2.15;;;8.60;99.90;;;;;;5073741;28;20040;-90
2023/01/12 06:13:55;;;;;;;4.18;1.23;;;8.60;99.90;;;;;;5057380;28;20052;-89
2023/01/12 06:13:55;;;;;;;7.88;1.42;;;8.60;99.90;;;;;;5059719;28;20074;-87
2023/01/12 06:16:21;;;;;;;4.40;1.50;;;8.60;99.90;;;;;;5040717;28;20048;-88
2023/01/12 06:18:47;;;;;;;3.90;1.50;;;8.60;99.90;;;;;;5057254;28;20518;-87
2023/01/12 06:21:13;;;;;;;5.43;1.30;;;8.70;99.90;;;;;;5056479;28;20036;-87
2023/01/12 06:23:39;;;;;;;2.42;1.05;;;8.70;99.90;;;;;;5073693;28;20041;-89
2023/01/12 06:26:07;;;;;;;6.25;1.42;;;8.70;99.90;;;;;;5057377;28;20051;-91
2023/01/12 06:28:35;;;;;;;2.97;1.10;;;8.70;99.90;;;;;;5073425;28;20045;-90
2023/01/12 06:31:03;;;;;;;4.22;0.90;;;8.70;99.90;;;;;;5073417;28;20060;-88
2023/01/12 06:33:30;;;;;;;4.15;1.20;;;8.80;99.90;;;;;;5056479;28;20169;-86
2023/01/12 06:35:56;;;;;;;4.35;1.25;;;8.80;99.90;;;;;;5073344;28;20098;-89
2023/01/12 06:38:25;;;;;;;4.07;1.20;;;8.80;99.90;;;;;;5056396;28;20044;-89
2023/01/12 06:40:51;;;;;;;2.63;1.10;;;8.80;99.90;;;;;;5056318;28;20543;-89
2023/01/12 06:43:17;;;;;;;2.10;0.80;;;8.90;99.90;;;;;;5073748;28;20091;-87
2023/01/12 06:45:43;;;;;;;3.35;1.10;;;8.90;99.90;;;;;;5057083;28;20098;-88
2023/01/12 06:48:09;;;;;;;2.85;0.82;;;8.90;99.90;;;;;;5057641;28;20048;-89
2023/01/12 06:50:36;;;;;;;3.30;1.00;;;8.90;99.90;;;;;;5073600;28;20075;-89
2023/01/12 06:53:04;;;;;;;2.55;0.70;;;9.00;99.90;;;;;;5056518;28;20046;-89
2023/01/12 06:55:30;;;;;;;1.42;0.65;;;8.90;99.90;;;;;;5056544;28;20477;-90
2023/01/12 06:57:56;;;;;;;1.27;0.55;;;9.10;99.90;;;;;;5072520;28;20052;-89
2023/01/12 07:00:22;;;;;;;1.95;0.60;;;9.00;99.90;;;;;;5039632;28;20036;-86
2023/01/12 07:02:49;;;;;;;1.35;0.45;;;9.10;99.90;;;;;;5056137;28;20052;-86
2023/01/12 07:05:15;;;;;;;1.08;0.63;;;9.20;99.90;;;;;;5056350;28;20510;-87
2023/01/12 07:07:42;;;;;;;2.22;0.52;;;9.20;99.90;;;;;;5072788;28;20041;-89
2023/01/12 07:10:11;;;;;;;0.63;0.50;;;9.30;99.90;;;;;;5056148;28;20044;-91
2023/01/12 07:12:37;;;;;;;1.30;0.75;;;9.30;99.90;;;;;;5072665;28;20056;-88
2023/01/12 07:15:04;;;;;;;4.28;0.68;;;9.40;99.90;;;;;;5072408;28;20055;-88
2023/01/12 07:17:30;;;;;;;2.30;0.52;;;9.40;99.90;;;;;;5039464;28;20051;-86
2023/01/12 07:19:56;;;;;;;1.67;0.68;;;9.50;99.90;;;;;;5055672;28;20041;-85
2023/01/12 07:22:22;;;;;;;1.88;0.70;;;9.60;99.90;;;;;;5056087;28;20040;-85
2023/01/12 07:24:47;;;;;;;1.40;0.60;;;9.60;99.90;;;;;;5072385;28;20052;-87
2023/01/12 07:27:13;;;;;;;2.50;0.90;;;9.60;99.90;;;;;;5055901;28;20098;-87
2023/01/12 07:29:39;;;;;;;2.25;0.70;;;9.60;99.90;;;;;;5055741;28;20056;-89
2023/01/12 07:32:04;;;;;;;1.08;0.80;;;9.60;99.90;;;;;;5055782;28;20072;-87
2023/01/12 07:34:30;;;;;;;1.42;0.70;;;9.70;99.90;;;;;;5055919;28;20430;-86
2023/01/12 07:36:56;;;;;;;2.97;0.80;;;9.70;99.90;;;;;;5055484;28;20459;-89
2023/01/12 07:39:22;;;;;;;1.30;0.95;;;9.70;99.90;;;;;;5072483;28;20051;-86
2023/01/12 07:44:32;;;;;;;2.67;1.30;;;9.70;99.90;;;;;;5072232;28;20052;-86
2023/01/12 07:47:01;;;;;;;1.52;1.05;;;9.80;99.90;;;;;;5038387;28;20083;-87
2023/01/12 07:49:26;;;;;;;1.27;0.68;;;9.80;99.90;;;;;;5071742;28;20044;-86
2023/01/12 07:51:53;;;;;;;1.95;0.68;;;9.70;99.90;;;;;;5054941;28;20094;-87
2023/01/12 07:54:19;;;;;;;2.70;1.30;;;9.80;99.90;;;;;;5054633;28;20052;-86
2023/01/12 07:56:45;;;;;;;1.58;1.20;;;9.90;99.90;;;;;;5073098;28;20044;-88
2023/01/12 07:59:11;;;;;;;1.63;1.10;;;9.90;99.90;;;;;;5058145;28;20055;-85
2023/01/12 08:01:38;;;;;;;2.67;1.52;;;9.80;99.90;;;;;;5074815;28;20130;-85
2023/01/12 08:04:04;;;;;;;2.08;1.15;;;9.90;99.90;;;;;;5081638;28;20051;-86
2023/01/12 08:06:30;;;;;;;2.90;1.20;;;9.90;99.90;;;;;;5064830;28;20383;-86
2023/01/12 08:08:56;;;;;;;2.78;1.30;;;9.80;99.90;;;;;;5064780;28;20357;-84
2023/01/12 08:11:23;;;;;;;3.20;1.30;;;9.90;99.90;;;;;;5081587;28;20048;-87
2023/01/12 08:13:54;;;;;;;2.40;0.93;;;10.00;99.90;;;;;;5065293;28;20373;-85
2023/01/12 08:16:26;;;;;;;4.25;1.75;;;10.00;99.90;;;;;;5065431;28;20047;-86
2023/01/12 08:18:57;;;;;;;1.52;0.95;;;10.10;99.90;;;;;;5081636;28;20458;-87
2023/01/12 08:21:27;;;;;;;3.90;1.85;;;10.10;99.90;;;;;;5065004;28;20090;-87
2023/01/12 08:23:57;;;;;;;3.33;1.75;;;10.00;99.90;;;;;;5098840;28;20059;-85
2023/01/12 08:26:33;;;;;;;1.98;1.27;;;10.10;99.90;;;;;;5081905;28;20039;-85
2023/01/12 08:29:05;;;;;;;5.15;1.30;;;10.20;99.90;;;;;;5081694;28;20050;-85
2023/01/12 08:31:31;;;;;;;4.90;1.50;;;10.10;99.90;;;;;;5081838;28;20043;-85
2023/01/12 08:33:57;;;;;;;1.90;0.80;;;10.20;99.90;;;;;;5064991;28;20058;-85
2023/01/12 08:36:25;;;;;;;8.70;1.58;;;10.40;99.90;;;;;;5081726;28;20048;-84
2023/01/12 08:38:51;;;;;;;9.73;1.73;;;10.50;99.90;;;;;;5081727;28;20123;-85
2023/01/12 08:41:31;;;;;;;11.55;2.83;;;10.40;99.90;;;;;;5098167;28;20131;-85
2023/01/12 08:44:08;;;;;;;14.70;2.20;;;10.60;99.90;;;;;;5067288;28;20083;-85
2023/01/12 08:46:38;;;;;;;15.93;2.15;;;10.50;99.90;;;;;;5065148;28;20545;-84
2023/01/12 08:49:08;;;;;;;13.97;2.87;;;10.60;99.90;;;;;;5064903;28;20044;-85
2023/01/12 08:51:34;;;;;;;16.38;2.92;;;10.60;99.90;;;;;;5064995;28;20089;-86
2023/01/12 08:54:01;;;;;;;27.38;4.03;;;10.80;99.90;;;;;;5064727;28;20055;-87
2023/01/12 08:56:27;;;;;;;16.35;2.60;;;11.00;99.90;;;;;;5081613;28;20078;-86
2023/01/12 08:58:52;;;;;;;15.00;2.60;;;11.10;99.90;;;;;;5047836;28;20479;-86
2023/01/12 09:01:19;;;;;;;20.38;2.78;;;11.10;99.90;;;;;;5081190;28;20089;-85
2023/01/12 09:03:46;;;;;;;20.55;3.17;;;11.00;99.90;;;;;;5065087;28;20388;-86
2023/01/12 09:06:20;;;;;;;14.20;2.35;;;11.00;99.90;;;;;;5064822;28;20040;-87
2023/01/12 09:08:46;;;;;;;15.95;2.60;;;11.10;99.90;;;;;;5081770;28;20141;-87
2023/01/12 09:11:14;;;;;;;15.07;2.50;;;11.10;99.90;;;;;;5064706;28;20055;-88
2023/01/12 09:13:40;;;;;;;14.63;2.80;;;11.20;99.90;;;;;;5079977;28;20052;-87
2023/01/12 09:16:11;;;;;;;16.92;2.95;;;11.10;99.90;;;;;;5061443;28;20048;-85
2023/01/12 09:18:37;;;;;;;11.32;2.42;;;11.10;99.90;;;;;;5061617;28;20105;-86
2023/01/12 09:21:08;;;;;;;24.33;3.25;;;11.20;99.90;;;;;;5061064;28;20037;-88
2023/01/12 09:23:34;;;;;;;18.42;2.83;;;11.10;99.90;;;;;;5061540;28;20047;-86
2023/01/12 09:26:31;;;;;;;19.10;2.97;;;11.20;99.90;;;;;;5061274;28;20488;-87
2023/01/12 09:28:58;;;;;;;17.50;2.72;;;11.10;99.90;;;;;;5061401;28;20477;-87
2023/01/12 09:31:25;;;;;;;11.02;2.28;;;11.30;99.90;;;;;;5077858;28;20102;-85
2023/01/12 09:33:52;;;;;;;14.65;2.33;;;11.20;99.90;;;;;;5044796;28;20047;-86
2023/01/12 09:36:20;;;;;;;19.25;2.92;;;11.10;99.90;;;;;;5077769;28;20134;-86
2023/01/12 09:38:47;;;;;;;21.05;2.47;;;11.20;99.90;;;;;;5077940;28;20430;-85
2023/01/12 09:46:57;;;;;;;21.38;3.05;;;11.20;99.90;;;;;;5094789;28;20097;-85
2023/01/12 09:47:17;;;;;;;13.95;2.70;;;11.30;99.90;;;;;;5036659;28;20562;-86
2023/01/12 09:49:49;;;;;;;13.05;1.85;;;11.20;99.90;;;;;;5072362;28;20081;-85
2023/01/12 09:52:20;;;;;;;19.85;2.47;;;11.20;99.90;;;;;;5077575;28;20105;-87
2023/01/12 09:54:49;;;;;;;21.10;3.22;;;11.20;99.90;;;;;;5060775;28;20054;-87
2023/01/12 09:57:46;;;;;;;17.23;2.85;;;11.40;99.90;;;;;;5060407;28;20056;-86
2023/01/12 10:00:18;;;;;;;17.23;2.95;;;11.40;99.90;;;;;;5077151;28;20055;-86
2023/01/12 10:02:58;;;;;;;13.95;2.50;;;11.30;99.90;;;;;;5044281;28;20059;-91
2023/01/12 10:05:46;;;;;;;15.32;2.30;;;11.30;99.90;;;;;;5077133;28;20499;-85
2023/01/12 10:08:28;;;;;;;16.17;2.50;;;11.30;99.90;;;;;;5077176;28;20051;-87
2023/01/12 10:11:00;;;;;;;15.30;2.13;;;11.40;99.90;;;;;;5077536;28;20044;-85
2023/01/12 10:13:59;;;;;;;20.63;3.13;;;11.40;99.90;;;;;;5060427;28;20044;-84
2023/01/12 10:17:03;;;;;;;17.05;3.08;;;11.40;99.90;;;;;;5023523;28;20061;-85
2023/01/12 10:19:54;;;;;;;12.10;2.10;;;11.40;99.90;;;;;;5043425;28;20051;-84
2023/01/12 10:22:36;;;;;;;12.63;1.90;;;11.40;99.90;;;;;;5076701;28;20466;-85
2023/01/12 10:25:13;;;;;;;;;;;11.30;99.90;;;;;;5077167;28;20534;-86
2023/01/12 10:27:42;;;;;;;11.75;2.03;;;11.40;99.90;;;;;;5059655;28;19963;-85
2023/01/12 10:30:31;;;;;;;11.95;3.15;;;11.40;99.90;;;;;;5093821;28;20400;-85
2023/01/12 10:33:14;;;;;;;11.70;2.20;;;11.40;99.90;;;;;;5060389;28;20047;-85
2023/01/12 10:35:50;;;;;;;12.15;2.13;;;11.40;99.90;;;;;;5093678;28;20062;-84
2023/01/12 10:38:38;;;;;;;14.27;2.47;;;11.50;99.90;;;;;;5076640;28;20072;-86
2023/01/12 10:41:25;;;;;;;15.85;2.10;;;11.60;99.90;;;;;;5059903;28;20415;-87
2023/01/12 10:43:53;;;;;;;15.60;1.85;;;11.50;99.90;;;;;;5076144;28;20063;-85
2023/01/12 10:46:22;;;;;;;26.17;2.75;;;11.50;99.90;;;;;;5076167;28;20040;-85
2023/01/12 10:48:50;;;;;;;14.30;2.40;;;11.50;99.90;;;;;;5076576;28;20517;-85
2023/01/12 10:51:33;;;;;;;14.05;2.05;;;11.70;99.90;;;;;;5076544;28;20047;-85
2023/01/12 10:53:59;;;;;;;14.85;2.30;;;11.70;99.90;;;;;;5055565;28;20147;-85
2023/01/12 10:56:38;;;;;;;9.02;1.58;;;11.70;99.90;;;;;;5039401;28;20532;-85
2023/01/12 10:59:28;;;;;;;9.40;1.67;;;11.60;99.90;;;;;;5032191;28;20140;-85
2023/01/12 11:02:12;;;;;;;11.07;2.17;;;11.60;99.90;;;;;;5016152;28;20050;-84
2023/01/12 11:04:42;;;;;;;15.60;2.70;;;11.60;99.90;;;;;;5052312;28;20057;-86
2023/01/12 11:07:14;;;;;;;16.45;2.03;;;11.50;99.90;;;;;;5052712;28;20052;-84
2023/01/12 11:09:41;;;;;;;18.35;2.15;;;11.50;99.90;;;;;;5052077;28;20059;-85
2023/01/12 11:12:19;;;;;;;14.07;2.03;;;11.60;99.90;;;;;;5036047;28;20044;-85
2023/01/12 11:14:59;;;;;;;13.75;2.15;;;11.50;99.90;;;;;;5050165;28;20095;-87
2023/01/12 11:17:42;;;;;;;16.83;2.50;;;11.50;99.90;;;;;;5033024;28;20048;-85
2023/01/12 11:20:26;;;;;;;13.43;2.45;;;11.50;99.90;;;;;;5049615;28;20053;-85
2023/01/12 11:22:58;;;;;;;16.75;2.20;;;11.50;99.90;;;;;;5034157;28;20088;-85
2023/01/12 11:25:24;;;;;;;;;;;11.50;99.90;;;;;;5050055;28;20052;-86
2023/01/12 11:28:14;;;;;;;13.60;1.80;;;11.60;99.90;;;;;;4684364;28;9999777;-85
2023/01/12 11:31:06;;;;;;;9.52;1.65;;;11.70;99.90;;;;;;5064225;28;20045;-85
2023/01/12 11:33:57;;;;;;;11.48;2.67;;;11.90;99.90;;;;;;5033754;28;20049;-88
2023/01/12 11:36:38;;;;;;;14.70;2.50;;;11.80;99.90;;;;;;5049887;28;20060;-86
2023/01/12 11:39:09;;;;;;;8.40;1.63;;;11.90;99.90;;;;;;5034104;28;20381;-89
2023/01/12 11:41:40;;;;;;;13.32;2.22;;;11.90;99.90;;;;;;5050436;28;20049;-87
2023/01/12 11:44:29;;;;;;;8.67;1.60;;;11.90;99.90;;;;;;5050651;28;20048;-83
2023/01/12 11:47:16;;;;;;;12.07;2.00;;;11.90;99.90;;;;;;5050252;28;20279;-87
2023/01/12 11:50:10;;;;;;;8.48;1.70;;;11.90;99.90;;;;;;5017321;28;20447;-87
2023/01/12 11:52:36;;;;;;;12.20;1.77;;;12.00;99.90;;;;;;5048378;28;20051;-87
2023/01/12 11:55:02;;;;;;;12.48;2.03;;;12.20;99.90;;;;;;5049789;28;20131;-88
2023/01/12 11:58:03;;;;;;;11.38;2.08;;;12.50;99.90;;;;;;5040179;28;20065;-88
2023/01/12 12:00:52;;;;;;;10.15;1.60;;;12.60;99.90;;;;;;5068046;28;20072;-87
2023/01/12 12:03:36;;;;;;;11.52;1.95;;;12.60;99.90;;;;;;5070105;28;20056;-87
2023/01/12 12:06:30;;;;;;;9.98;1.80;;;12.70;99.90;;;;;;5069947;28;20044;-87
2023/01/12 12:09:18;;;;;;;9.93;2.60;;;12.60;99.90;;;;;;5069995;28;20045;-87
2023/01/12 12:11:58;;;;;;;11.52;2.10;;;12.60;99.90;;;;;;5069565;28;20049;-89
2023/01/12 12:14:33;;;;;;;10.10;1.70;;;12.70;99.90;;;;;;5069164;28;20045;-87
2023/01/12 12:17:05;;;;;;;11.73;2.15;;;12.60;99.90;;;;;;5069705;28;20095;-87
2023/01/12 12:19:47;;;;;;;10.07;1.58;;;12.70;99.90;;;;;;5052614;28;20063;-88
2023/01/12 12:22:51;;;;;;;8.25;2.08;;;12.80;99.90;;;;;;5069883;28;20386;-88
2023/01/12 12:25:27;;;;;;;10.35;1.88;;;12.90;99.90;;;;;;5037623;28;20052;-86
2023/01/12 12:28:57;;;;;;;9.77;2.47;;;13.10;99.90;;;;;;5074855;28;20032;-87
2023/01/12 12:31:38;;;;;;;10.63;2.08;;;12.90;99.90;;;;;;4948129;28;20449;-87
2023/01/12 12:34:42;;;;;;;14.80;2.03;;;13.10;99.90;;;;;;5051871;28;20079;-87
2023/01/12 12:37:27;;;;;;;12.70;2.53;;;12.80;99.90;;;;;;5047406;28;20096;-88
2023/01/12 12:40:20;;;;;;;11.20;1.60;;;12.70;99.90;;;;;;5048871;28;20063;-87
2023/01/12 12:45:57;;;;;;;14.68;1.88;;;12.40;99.90;;;;;;5049519;28;20057;-87
2023/01/12 12:48:38;;;;;;;16.25;1.90;;;12.40;99.90;;;;;;5026984;28;20061;-88
2023/01/12 12:51:07;;;;;;;8.73;1.45;;;12.40;99.90;;;;;;5053421;28;20053;-89
2023/01/12 12:53:34;;;;;;;7.97;1.50;;;12.40;99.90;;;;;;5052958;28;20041;-87
2023/01/12 12:56:07;;;;;;;11.05;1.70;;;12.30;99.90;;;;;;5053007;28;20056;-88
2023/01/12 12:58:44;;;;;;;11.80;1.98;;;12.30;99.90;;;;;;5053759;28;20057;-87
2023/01/12 13:01:19;;;;;;;13.60;1.95;;;12.30;99.90;;;;;;5039219;28;20056;-87
2023/01/12 13:03:47;;;;;;;12.70;2.05;;;12.30;99.90;;;;;;5056337;28;20048;-87
2023/01/12 13:06:24;;;;;;;14.18;1.92;;;12.30;99.90;;;;;;5056349;28;20392;-88
2023/01/12 13:08:58;;;;;;;9.13;2.03;;;12.20;99.90;;;;;;5059267;28;20040;-87
2023/01/12 13:11:55;;;;;;;10.60;1.88;;;12.20;99.90;;;;;;5046091;28;20041;-88
2023/01/12 13:14:33;;;;;;;6.93;1.73;;;12.20;99.90;;;;;;5055882;28;20048;-87
2023/01/12 13:17:18;;;;;;;14.40;2.10;;;12.20;99.90;;;;;;5056398;28;20135;-89
2023/01/12 13:19:48;;;;;;;12.48;2.20;;;12.20;99.90;;;;;;5055845;28;20048;-88
2023/01/12 13:22:38;;;;;;;12.25;2.00;;;12.20;99.90;;;;;;5056051;28;20176;-87
2023/01/12 13:25:19;;;;;;;11.65;1.80;;;12.10;99.90;;;;;;5055741;28;20458;-88
2023/01/12 13:27:59;;;;;;;14.75;2.45;;;12.10;99.90;;;;;;5066118;28;20058;-88
2023/01/12 13:30:25;;;;;;;9.52;1.90;;;12.10;99.90;;;;;;5059352;28;20036;-88
2023/01/12 13:32:54;;;;;;;10.73;2.03;;;12.10;99.90;;;;;;5075689;28;20131;-87
2023/01/12 13:35:35;;;;;;;13.95;1.63;;;12.10;99.90;;;;;;5059469;28;20048;-86
2023/01/12 13:38:30;;;;;;;8.82;1.90;;;12.10;99.90;;;;;;5058738;28;20083;-87
2023/01/12 13:43:13;;;;;;;11.73;2.17;;;12.10;99.90;;;;;;5092206;28;20044;-88
2023/01/12 13:44:01;;;;;;;15.18;1.98;;;12.00;99.90;;;;;;5074774;28;20449;-88